createdAt,value
2019-04-05T00:00:57.354Z,0.00
2019-04-05T00:01:57.349Z,0.00
2019-04-05T00:02:57.342Z,0.00
2019-04-05T00:03:57.347Z,0.00
2019-04-05T00:04:57.353Z,0.00
2019-04-05T00:05:57.297Z,0.00
2019-04-05T00:06:57.287Z,0.00
2019-04-05T00:07:57.287Z,0.00
2019-04-05T00:08:57.292Z,0.00
2019-04-05T00:09:57.250Z,0.00
2019-04-05T00:10:57.276Z,0.00
2019-04-05T00:11:57.260Z,0.00
2019-04-05T00:12:57.221Z,0.00
2019-04-05T00:13:57.211Z,0.00
2019-04-05T00:14:57.193Z,0.00
2019-04-05T00:15:57.213Z,0.00
2019-04-05T00:16:57.183Z,0.00
2019-04-05T00:17:57.165Z,0.00
2019-04-05T00:18:57.152Z,0.00
2019-04-05T00:19:57.138Z,0.00
2019-04-05T00:20:57.129Z,0.00
2019-04-05T00:21:57.140Z,0.00
2019-04-05T00:22:57.127Z,0.00
2019-04-05T00:23:57.255Z,0.00
2019-04-05T00:24:57.090Z,0.00
2019-04-05T00:25:57.079Z,0.00
2019-04-05T00:26:57.130Z,0.00
2019-04-05T00:27:57.081Z,0.00
2019-04-05T00:28:57.040Z,0.00
2019-04-05T00:29:57.033Z,0.00
2019-04-05T00:30:57.018Z,0.00
2019-04-05T00:31:57.010Z,0.00
2019-04-05T00:32:56.999Z,0.00
2019-04-05T00:33:57.043Z,0.00
2019-04-05T00:34:56.987Z,0.00
2019-04-05T00:35:56.985Z,0.00
2019-04-05T00:36:56.965Z,0.00
2019-04-05T00:37:56.944Z,0.00
2019-04-05T00:38:56.934Z,0.00
2019-04-05T00:39:56.924Z,0.00
2019-04-05T00:40:56.934Z,0.00
2019-04-05T00:41:56.923Z,0.00
2019-04-05T00:42:56.890Z,0.00
2019-04-05T00:43:56.879Z,0.00
2019-04-05T00:44:56.870Z,0.00
2019-04-05T00:45:56.878Z,0.00
2019-04-05T00:46:56.873Z,0.00
2019-04-05T00:47:56.853Z,0.00
2019-04-05T00:48:56.825Z,0.00
2019-04-05T00:49:56.809Z,0.00
2019-04-05T00:50:57.721Z,0.00
2019-04-05T00:51:56.785Z,0.00
2019-04-05T00:52:56.794Z,0.00
2019-04-05T00:53:56.768Z,0.00
2019-04-05T00:54:56.758Z,0.00
2019-04-05T00:55:56.746Z,0.00
2019-04-05T00:56:56.726Z,0.00
2019-04-05T00:57:57.213Z,0.00
2019-04-05T00:58:56.710Z,0.00
2019-04-05T00:59:56.698Z,0.00
2019-04-05T01:00:56.685Z,0.00
2019-04-05T01:01:56.677Z,0.00
2019-04-05T01:02:56.665Z,0.00
2019-04-05T01:03:56.678Z,0.00
2019-04-05T01:04:56.642Z,0.00
2019-04-05T01:05:56.630Z,0.00
2019-04-05T01:06:56.734Z,0.00
2019-04-05T01:07:56.627Z,0.00
2019-04-05T01:08:56.604Z,0.00
2019-04-05T01:09:56.722Z,0.00
2019-04-05T01:10:56.573Z,0.00
2019-04-05T01:11:56.566Z,0.00
2019-04-05T01:12:56.626Z,0.00
2019-04-05T01:13:56.554Z,0.00
2019-04-05T01:14:56.557Z,0.00
2019-04-05T01:15:56.514Z,0.00
2019-04-05T01:16:56.511Z,0.00
2019-04-05T01:17:56.493Z,0.00
2019-04-05T01:18:56.506Z,0.00
2019-04-05T01:19:56.474Z,0.00
2019-04-05T01:20:56.465Z,0.00
2019-04-05T01:21:56.482Z,0.00
2019-04-05T01:22:56.444Z,0.00
2019-04-05T01:23:56.431Z,0.00
2019-04-05T01:24:56.419Z,0.00
2019-04-05T01:25:56.410Z,0.00
2019-04-05T01:26:56.419Z,0.00
2019-04-05T01:27:56.385Z,0.00
2019-04-05T01:28:56.375Z,0.00
2019-04-05T01:29:56.361Z,0.00
2019-04-05T01:30:56.390Z,0.00
2019-04-05T01:31:56.374Z,0.00
2019-04-05T01:32:56.335Z,0.00
2019-04-05T01:33:56.384Z,0.00
2019-04-05T01:34:56.308Z,0.00
2019-04-05T01:35:56.307Z,0.00
2019-04-05T01:36:56.289Z,0.00
2019-04-05T01:37:56.279Z,0.00
2019-04-05T01:38:56.301Z,0.00
2019-04-05T01:39:56.253Z,0.00
2019-04-05T01:40:56.240Z,0.00
2019-04-05T01:41:56.226Z,0.00
2019-04-05T01:42:56.217Z,0.00
2019-04-05T01:43:56.206Z,0.00
2019-04-05T01:44:56.225Z,0.00
2019-04-05T01:45:56.191Z,0.00
2019-04-05T01:46:56.171Z,0.00
2019-04-05T01:47:56.161Z,0.00
2019-04-05T01:48:56.150Z,0.00
2019-04-05T01:49:56.212Z,0.00
2019-04-05T01:50:56.151Z,0.00
2019-04-05T01:51:56.118Z,0.00
2019-04-05T01:52:56.107Z,0.00
2019-04-05T01:53:56.099Z,0.00
2019-04-05T01:54:56.111Z,0.00
2019-04-05T01:55:56.094Z,0.00
2019-04-05T01:56:56.061Z,0.00
2019-04-05T01:57:56.050Z,0.00
2019-04-05T01:59:03.710Z,0.00
2019-04-05T01:59:56.036Z,0.00
2019-04-05T02:00:56.021Z,0.00
2019-04-05T02:01:56.033Z,0.00
2019-04-05T02:02:56.001Z,0.00
2019-04-05T02:03:56.414Z,0.00
2019-04-05T02:04:56.070Z,0.00
2019-04-05T02:05:56.020Z,0.00
2019-04-05T02:06:55.975Z,0.00
2019-04-05T02:07:55.938Z,0.00
2019-04-05T02:08:55.931Z,0.00
2019-04-05T02:09:55.929Z,0.00
2019-04-05T02:10:55.908Z,0.00
2019-04-05T02:11:55.900Z,0.00
2019-04-05T02:12:55.921Z,0.00
2019-04-05T02:13:55.948Z,0.00
2019-04-05T02:14:55.867Z,0.00
2019-04-05T02:16:05.726Z,0.00
2019-04-05T02:16:56.841Z,0.00
2019-04-05T02:17:55.837Z,0.00
2019-04-05T02:18:55.849Z,0.00
2019-04-05T02:19:55.806Z,0.00
2019-04-05T02:20:55.798Z,0.00
2019-04-05T02:21:55.785Z,0.00
2019-04-05T02:22:55.771Z,0.00
2019-04-05T02:23:55.787Z,0.00
2019-04-05T02:24:55.765Z,0.00
2019-04-05T02:25:56.327Z,0.00
2019-04-05T02:26:56.775Z,0.00
2019-04-05T02:27:55.749Z,0.00
2019-04-05T02:28:55.710Z,0.00
2019-04-05T02:29:55.760Z,0.00
2019-04-05T02:30:55.687Z,0.00
2019-04-05T02:31:55.670Z,0.00
2019-04-05T02:32:55.673Z,0.00
2019-04-05T02:33:55.693Z,0.00
2019-04-05T02:34:55.648Z,0.00
2019-04-05T02:35:55.663Z,0.00
2019-04-05T02:36:55.619Z,0.00
2019-04-05T02:37:55.614Z,0.00
2019-04-05T02:38:55.599Z,0.00
2019-04-05T02:39:55.618Z,0.00
2019-04-05T02:40:58.440Z,0.00
2019-04-05T02:41:55.606Z,0.00
2019-04-05T02:42:55.580Z,0.00
2019-04-05T02:43:55.582Z,0.00
2019-04-05T02:44:55.541Z,0.00
2019-04-05T02:45:56.294Z,0.00
2019-04-05T02:46:55.558Z,0.00
2019-04-05T02:47:55.508Z,0.00
2019-04-05T02:48:55.495Z,0.00
2019-04-05T02:49:55.476Z,0.00
2019-04-05T02:50:55.503Z,0.00
2019-04-05T02:51:55.505Z,0.00
2019-04-05T02:52:55.482Z,0.00
2019-04-05T02:53:55.448Z,0.00
2019-04-05T02:54:55.428Z,0.00
2019-04-05T02:55:55.416Z,0.00
2019-04-05T02:56:55.458Z,0.00
2019-04-05T02:57:55.381Z,0.00
2019-04-05T02:58:55.405Z,0.00
2019-04-05T02:59:55.363Z,0.00
2019-04-05T03:00:55.361Z,0.00
2019-04-05T03:01:55.341Z,0.00
2019-04-05T03:02:55.336Z,0.00
2019-04-05T03:03:55.318Z,0.00
2019-04-05T03:04:55.324Z,0.00
2019-04-05T03:05:55.310Z,0.00
2019-04-05T03:06:55.444Z,0.00
2019-04-05T03:07:55.309Z,0.00
2019-04-05T03:08:55.272Z,0.00
2019-04-05T03:09:55.312Z,0.00
2019-04-05T03:10:55.249Z,0.00
2019-04-05T03:11:55.310Z,0.00
2019-04-05T03:12:55.231Z,0.00
2019-04-05T03:13:55.226Z,0.00
2019-04-05T03:14:55.209Z,0.00
2019-04-05T03:15:55.187Z,0.00
2019-04-05T03:16:55.196Z,0.00
2019-04-05T03:17:55.199Z,0.00
2019-04-05T03:18:55.155Z,0.00
2019-04-05T03:19:55.144Z,0.00
2019-04-05T03:20:55.132Z,0.00
2019-04-05T03:21:55.122Z,0.00
2019-04-05T03:22:55.113Z,0.00
2019-04-05T03:23:55.126Z,0.00
2019-04-05T03:24:55.092Z,0.00
2019-04-05T03:25:55.178Z,0.00
2019-04-05T03:26:55.064Z,0.00
2019-04-05T03:27:55.052Z,0.00
2019-04-05T03:28:55.116Z,0.00
2019-04-05T03:29:55.059Z,0.00
2019-04-05T03:30:55.020Z,0.00
2019-04-05T03:31:55.784Z,0.00
2019-04-05T03:32:55.001Z,0.00
2019-04-05T03:33:54.994Z,0.00
2019-04-05T03:34:54.988Z,0.00
2019-04-05T03:35:54.993Z,0.00
2019-04-05T03:36:54.954Z,0.00
2019-04-05T03:37:54.963Z,0.00
2019-04-05T03:38:54.935Z,0.00
2019-04-05T03:39:54.958Z,0.00
2019-04-05T03:40:54.911Z,0.00
2019-04-05T03:41:54.904Z,0.00
2019-04-05T03:42:54.885Z,0.00
2019-04-05T03:43:54.905Z,0.00
2019-04-05T03:44:54.869Z,0.00
2019-04-05T03:45:54.883Z,0.00
2019-04-05T03:46:57.475Z,0.00
2019-04-05T03:47:54.852Z,0.00
2019-04-05T03:48:54.835Z,0.00
2019-04-05T03:49:54.985Z,0.00
2019-04-05T03:50:54.798Z,0.00
2019-04-05T03:51:54.796Z,0.00
2019-04-05T03:52:54.805Z,0.00
2019-04-05T03:53:54.766Z,0.00
2019-04-05T03:54:54.759Z,0.00
2019-04-05T03:55:54.745Z,0.00
2019-04-05T03:56:54.741Z,0.00
2019-04-05T03:57:54.720Z,0.00
2019-04-05T03:58:54.729Z,0.00
2019-04-05T03:59:54.739Z,0.00
2019-04-05T04:00:54.683Z,0.00
2019-04-05T04:01:54.679Z,0.00
2019-04-05T04:02:54.667Z,0.00
2019-04-05T04:03:54.697Z,0.00
2019-04-05T04:04:54.650Z,0.00
2019-04-05T04:05:54.779Z,0.00
2019-04-05T04:06:54.649Z,0.00
2019-04-05T04:07:54.610Z,0.00
2019-04-05T04:08:55.300Z,0.00
2019-04-05T04:09:54.668Z,0.00
2019-04-05T04:10:54.585Z,0.00
2019-04-05T04:11:54.566Z,0.00
2019-04-05T04:12:54.563Z,0.00
2019-04-05T04:13:54.548Z,0.00
2019-04-05T04:14:54.563Z,0.00
2019-04-05T04:15:54.519Z,0.00
2019-04-05T04:17:10.968Z,0.00
2019-04-05T04:17:55.495Z,0.00
2019-04-05T04:18:54.500Z,0.00
2019-04-05T04:19:54.489Z,0.00
2019-04-05T04:20:54.510Z,0.00
2019-04-05T04:21:54.492Z,0.00
2019-04-05T04:22:54.438Z,0.00
2019-04-05T04:23:54.437Z,0.00
2019-04-05T04:24:54.555Z,0.00
2019-04-05T04:25:54.417Z,0.00
2019-04-05T04:26:54.400Z,0.00
2019-04-05T04:27:54.385Z,0.00
2019-04-05T04:28:54.376Z,0.00
2019-04-05T04:29:54.411Z,0.00
2019-04-05T04:30:54.362Z,0.00
2019-04-05T04:31:54.363Z,0.00
2019-04-05T04:32:54.362Z,0.00
2019-04-05T04:33:54.315Z,0.00
2019-04-05T04:34:54.313Z,0.00
2019-04-05T04:35:54.335Z,0.00
2019-04-05T04:36:54.284Z,0.00
2019-04-05T04:37:54.338Z,0.00
2019-04-05T04:38:54.275Z,0.00
2019-04-05T04:39:54.260Z,0.00
2019-04-05T04:40:54.251Z,4.00
2019-04-05T04:41:54.231Z,4.00
2019-04-05T04:42:54.216Z,0.00
2019-04-05T04:43:54.234Z,4.00
2019-04-05T04:44:54.195Z,4.00
2019-04-05T04:45:54.225Z,4.00
2019-04-05T04:46:54.175Z,4.00
2019-04-05T04:47:54.164Z,8.00
2019-04-05T04:48:54.292Z,8.00
2019-04-05T04:49:54.166Z,12.00
2019-04-05T04:50:54.128Z,12.00
2019-04-05T04:51:54.202Z,12.00
2019-04-05T04:52:54.105Z,12.00
2019-04-05T04:53:54.113Z,20.00
2019-04-05T04:54:54.102Z,20.00
2019-04-05T04:55:54.078Z,24.00
2019-04-05T04:56:54.815Z,28.00
2019-04-05T04:57:54.050Z,28.00
2019-04-05T04:58:54.072Z,32.00
2019-04-05T04:59:54.033Z,32.00
2019-04-05T05:00:54.022Z,36.00
2019-04-05T05:01:54.008Z,40.00
2019-04-05T05:02:54.021Z,44.00
2019-04-05T05:03:53.988Z,52.00
2019-04-05T05:04:53.983Z,56.00
2019-04-05T05:05:53.962Z,60.00
2019-04-05T05:06:53.948Z,68.00
2019-04-05T05:07:54.053Z,72.00
2019-04-05T05:08:53.955Z,76.00
2019-04-05T05:09:53.928Z,84.00
2019-04-05T05:10:53.913Z,88.00
2019-04-05T05:11:53.956Z,92.00
2019-04-05T05:12:54.841Z,100.00
2019-04-05T05:13:53.875Z,108.00
2019-04-05T05:14:53.873Z,116.00
2019-04-05T05:15:53.998Z,120.00
2019-04-05T05:16:53.845Z,124.00
2019-04-05T05:17:58.748Z,132.00
2019-04-05T05:18:55.808Z,136.00
2019-04-05T05:19:53.801Z,140.00
2019-04-05T05:20:53.792Z,148.00
2019-04-05T05:21:53.791Z,156.00
2019-04-05T05:22:53.772Z,168.00
2019-04-05T05:23:53.766Z,176.00
2019-04-05T05:24:53.775Z,184.00
2019-04-05T05:25:53.780Z,192.00
2019-04-05T05:26:53.728Z,200.00
2019-04-05T05:27:53.722Z,212.00
2019-04-05T05:28:53.706Z,228.00
2019-04-05T05:29:53.693Z,248.00
2019-04-05T05:30:53.689Z,276.00
2019-04-05T05:31:53.851Z,296.00
2019-04-05T05:32:53.661Z,312.00
2019-04-05T05:33:53.655Z,308.00
2019-04-05T05:35:02.033Z,300.00
2019-04-05T05:35:54.630Z,288.00
2019-04-05T05:36:53.622Z,280.00
2019-04-05T05:37:53.632Z,284.00
2019-04-05T05:38:53.593Z,292.00
2019-04-05T05:39:53.583Z,300.00
2019-04-05T05:40:53.577Z,308.00
2019-04-05T05:41:53.561Z,324.00
2019-04-05T05:42:53.556Z,344.00
2019-04-05T05:43:53.582Z,340.00
2019-04-05T05:44:53.533Z,340.00
2019-04-05T05:45:53.556Z,348.00
2019-04-05T05:46:53.506Z,360.00
2019-04-05T05:47:53.496Z,364.00
2019-04-05T05:48:53.490Z,376.00
2019-04-05T05:49:53.496Z,388.00
2019-04-05T05:50:53.565Z,400.00
2019-04-05T05:51:53.469Z,416.00
2019-04-05T05:52:53.444Z,424.00
2019-04-05T05:53:53.429Z,440.00
2019-04-05T05:54:53.422Z,440.00
2019-04-05T05:55:53.407Z,436.00
2019-04-05T05:56:53.448Z,436.00
2019-04-05T05:57:54.880Z,432.00
2019-04-05T05:58:57.532Z,428.00
2019-04-05T05:59:54.386Z,428.00
2019-04-05T06:00:53.349Z,428.00
2019-04-05T06:01:53.340Z,428.00
2019-04-05T06:02:53.360Z,428.00
2019-04-05T06:03:53.323Z,428.00
2019-04-05T06:04:53.339Z,428.00
2019-04-05T06:06:03.637Z,436.00
2019-04-05T06:06:54.322Z,440.00
2019-04-05T06:07:53.277Z,448.00
2019-04-05T06:08:53.267Z,456.00
2019-04-05T06:09:53.807Z,480.00
2019-04-05T06:10:53.259Z,500.00
2019-04-05T06:11:53.298Z,496.00
2019-04-05T06:12:53.220Z,480.00
2019-04-05T06:13:53.211Z,472.00
2019-04-05T06:14:53.196Z,472.00
2019-04-05T06:15:53.240Z,484.00
2019-04-05T06:16:53.216Z,500.00
2019-04-05T06:18:04.209Z,528.00
2019-04-05T06:18:54.170Z,560.00
2019-04-05T06:19:53.140Z,580.00
2019-04-05T06:20:53.129Z,604.00
2019-04-05T06:21:53.118Z,608.00
2019-04-05T06:22:53.109Z,624.00
2019-04-05T06:23:53.113Z,640.00
2019-04-05T06:24:53.120Z,668.00
2019-04-05T06:25:53.070Z,684.00
2019-04-05T06:26:53.061Z,700.00
2019-04-05T06:27:53.053Z,716.00
2019-04-05T06:28:53.196Z,716.00
2019-04-05T06:29:53.057Z,728.00
2019-04-05T06:30:53.071Z,756.00
2019-04-05T06:31:53.006Z,792.00
2019-04-05T06:32:52.999Z,852.00
2019-04-05T06:33:53.002Z,912.00
2019-04-05T06:34:52.998Z,1012.00
2019-04-05T06:35:52.968Z,1152.00
2019-04-05T06:36:52.953Z,1272.00
2019-04-05T06:37:52.971Z,1332.00
2019-04-05T06:38:52.926Z,1436.00
2019-04-05T06:39:52.919Z,1464.00
2019-04-05T06:40:52.904Z,1396.00
2019-04-05T06:41:52.905Z,1324.00
2019-04-05T06:42:52.897Z,1324.00
2019-04-05T06:43:52.891Z,1328.00
2019-04-05T06:44:52.872Z,1232.00
2019-04-05T06:45:53.005Z,1208.00
2019-04-05T06:46:52.873Z,1244.00
2019-04-05T06:47:52.830Z,1340.00
2019-04-05T06:48:52.828Z,1444.00
2019-04-05T06:49:52.807Z,1368.00
2019-04-05T06:50:52.850Z,1360.00
2019-04-05T06:51:52.807Z,1376.00
2019-04-05T06:52:52.811Z,1380.00
2019-04-05T06:53:52.771Z,1396.00
2019-04-05T06:54:52.804Z,1436.00
2019-04-05T06:55:52.770Z,1540.00
2019-04-05T06:56:52.746Z,1644.00
2019-04-05T06:57:52.732Z,1704.00
2019-04-05T06:58:52.737Z,1756.00
2019-04-05T06:59:52.689Z,1816.00
2019-04-05T07:00:57.302Z,1812.00
2019-04-05T07:01:52.692Z,1816.00
2019-04-05T07:02:52.664Z,1868.00
2019-04-05T07:03:55.135Z,1948.00
2019-04-05T07:04:52.634Z,1992.00
2019-04-05T07:05:52.657Z,2164.00
2019-04-05T07:06:52.661Z,2272.00
2019-04-05T07:07:52.710Z,2272.00
2019-04-05T07:08:54.035Z,2088.00
2019-04-05T07:09:52.599Z,1932.00
2019-04-05T07:10:52.613Z,1800.00
2019-04-05T07:11:52.592Z,1628.00
2019-04-05T07:12:52.566Z,1692.00
2019-04-05T07:13:52.535Z,1868.00
2019-04-05T07:14:52.534Z,2084.00
2019-04-05T07:15:52.547Z,2008.00
2019-04-05T07:16:52.539Z,1808.00
2019-04-05T07:17:52.506Z,1568.00
2019-04-05T07:18:52.491Z,1440.00
2019-04-05T07:19:52.473Z,1396.00
2019-04-05T07:20:52.473Z,1428.00
2019-04-05T07:21:52.453Z,1448.00
2019-04-05T07:22:52.485Z,1464.00
2019-04-05T07:23:52.442Z,1520.00
2019-04-05T07:24:52.464Z,1460.00
2019-04-05T07:25:52.404Z,1340.00
2019-04-05T07:26:52.468Z,1132.00
2019-04-05T07:27:52.381Z,1016.00
2019-04-05T07:28:52.375Z,996.00
2019-04-05T07:29:52.362Z,968.00
2019-04-05T07:30:52.442Z,872.00
2019-04-05T07:31:52.339Z,928.00
2019-04-05T07:32:52.329Z,908.00
2019-04-05T07:33:52.313Z,864.00
2019-04-05T07:34:52.303Z,864.00
2019-04-05T07:35:52.302Z,900.00
2019-04-05T07:36:52.302Z,964.00
2019-04-05T07:37:52.276Z,944.00
2019-04-05T07:38:52.285Z,916.00
2019-04-05T07:39:52.296Z,940.00
2019-04-05T07:40:52.271Z,904.00
2019-04-05T07:41:52.221Z,928.00
2019-04-05T07:42:52.211Z,940.00
2019-04-05T07:43:52.220Z,968.00
2019-04-05T07:44:52.225Z,1068.00
2019-04-05T07:45:52.185Z,1060.00
2019-04-05T07:46:52.167Z,1164.00
2019-04-05T07:47:52.297Z,1268.00
2019-04-05T07:48:52.146Z,1448.00
2019-04-05T07:49:52.157Z,1792.00
2019-04-05T07:50:52.153Z,2104.00
2019-04-05T07:51:52.145Z,2160.00
2019-04-05T07:52:52.103Z,2084.00
2019-04-05T07:53:52.090Z,2164.00
2019-04-05T07:54:52.081Z,2104.00
2019-04-05T07:55:52.060Z,1904.00
2019-04-05T07:56:52.079Z,1928.00
2019-04-05T07:57:52.044Z,1996.00
2019-04-05T07:58:52.029Z,2024.00
2019-04-05T07:59:52.020Z,2064.00
2019-04-05T08:00:52.022Z,2116.00
2019-04-05T08:01:51.999Z,2128.00
2019-04-05T08:02:52.010Z,2280.00
2019-04-05T08:03:52.101Z,2608.00
2019-04-05T08:04:54.592Z,2764.00
2019-04-05T08:05:51.961Z,2724.00
2019-04-05T08:06:51.987Z,3064.00
2019-04-05T08:07:59.015Z,3276.00
2019-04-05T08:08:51.923Z,3268.00
2019-04-05T08:09:51.910Z,3540.00
2019-04-05T08:10:51.891Z,3584.00
2019-04-05T08:11:51.889Z,3204.00
2019-04-05T08:12:51.890Z,2688.00
2019-04-05T08:13:51.876Z,2600.00
2019-04-05T08:14:51.858Z,2660.00
2019-04-05T08:15:51.844Z,2764.00
2019-04-05T08:16:52.088Z,2916.00
2019-04-05T08:17:51.826Z,2844.00
2019-04-05T08:18:57.510Z,2712.00
2019-04-05T08:19:52.805Z,2720.00
2019-04-05T08:20:51.806Z,2924.00
2019-04-05T08:21:51.786Z,3036.00
2019-04-05T08:22:51.824Z,2808.00
2019-04-05T08:23:51.758Z,2476.00
2019-04-05T08:24:51.739Z,2076.00
2019-04-05T08:25:51.726Z,1948.00
2019-04-05T08:26:51.723Z,2384.00
2019-04-05T08:27:51.703Z,2932.00
2019-04-05T08:28:51.717Z,3396.00
2019-04-05T08:29:51.743Z,3172.00
2019-04-05T08:30:51.684Z,2932.00
2019-04-05T08:31:51.662Z,3000.00
2019-04-05T08:32:51.645Z,3020.00
2019-04-05T08:33:51.635Z,2684.00
2019-04-05T08:34:51.625Z,2664.00
2019-04-05T08:35:51.652Z,2752.00
2019-04-05T08:36:51.605Z,2932.00
2019-04-05T08:37:51.594Z,3432.00
2019-04-05T08:38:51.591Z,3816.00
2019-04-05T08:39:51.571Z,4104.00
2019-04-05T08:40:51.582Z,4108.00
2019-04-05T08:41:51.553Z,3984.00
2019-04-05T08:42:51.538Z,4088.00
2019-04-05T08:43:51.621Z,4140.00
2019-04-05T08:44:51.544Z,4088.00
2019-04-05T08:45:51.507Z,4044.00
2019-04-05T08:46:51.550Z,3860.00
2019-04-05T08:47:51.493Z,3648.00
2019-04-05T08:48:52.420Z,3344.00
2019-04-05T08:49:51.480Z,3192.00
2019-04-05T08:50:51.447Z,3244.00
2019-04-05T08:51:51.441Z,3416.00
2019-04-05T08:52:51.460Z,3552.00
2019-04-05T08:53:51.410Z,3356.00
2019-04-05T08:54:51.399Z,3352.00
2019-04-05T08:55:51.385Z,3336.00
2019-04-05T08:56:51.408Z,3216.00
2019-04-05T08:57:51.364Z,3132.00
2019-04-05T08:58:51.354Z,3240.00
2019-04-05T08:59:53.379Z,3484.00
2019-04-05T09:00:51.334Z,3576.00
2019-04-05T09:01:51.344Z,3432.00
2019-04-05T09:02:51.928Z,3292.00
2019-04-05T09:03:51.349Z,3692.00
2019-04-05T09:04:51.298Z,3724.00
2019-04-05T09:05:51.282Z,3276.00
2019-04-05T09:06:51.345Z,2860.00
2019-04-05T09:07:51.259Z,2596.00
2019-04-05T09:08:51.244Z,2412.00
2019-04-05T09:09:51.233Z,2316.00
2019-04-05T09:10:51.222Z,2388.00
2019-04-05T09:11:51.217Z,2308.00
2019-04-05T09:12:51.229Z,2044.00
2019-04-05T09:13:51.188Z,1844.00
2019-04-05T09:14:51.208Z,2132.00
2019-04-05T09:15:51.276Z,2556.00
2019-04-05T09:16:51.164Z,3240.00
2019-04-05T09:17:51.201Z,3556.00
2019-04-05T09:18:51.137Z,3364.00
2019-04-05T09:19:53.811Z,3148.00
2019-04-05T09:20:51.144Z,2752.00
2019-04-05T09:21:51.121Z,2644.00
2019-04-05T09:22:51.141Z,2828.00
2019-04-05T09:23:51.146Z,2988.00
2019-04-05T09:24:51.067Z,3164.00
2019-04-05T09:25:51.088Z,3544.00
2019-04-05T09:26:54.014Z,3820.00
2019-04-05T09:27:51.041Z,3232.00
2019-04-05T09:28:51.024Z,2748.00
2019-04-05T09:29:51.017Z,2304.00
2019-04-05T09:30:51.938Z,2112.00
2019-04-05T09:31:50.990Z,2204.00
2019-04-05T09:32:50.977Z,2272.00
2019-04-05T09:33:50.973Z,2100.00
2019-04-05T09:34:50.962Z,2188.00
2019-04-05T09:35:50.947Z,2860.00
2019-04-05T09:36:50.971Z,3596.00
2019-04-05T09:37:50.926Z,4560.00
2019-04-05T09:38:50.913Z,4972.00
2019-04-05T09:39:51.874Z,4660.00
2019-04-05T09:40:50.893Z,4332.00
2019-04-05T09:41:50.875Z,3952.00
2019-04-05T09:42:50.899Z,3468.00
2019-04-05T09:43:50.861Z,3284.00
2019-04-05T09:44:50.845Z,3208.00
2019-04-05T09:45:50.837Z,3216.00
2019-04-05T09:46:51.285Z,3000.00
2019-04-05T09:47:50.833Z,2716.00
2019-04-05T09:48:50.803Z,2648.00
2019-04-05T09:49:50.798Z,2724.00
2019-04-05T09:50:50.783Z,2936.00
2019-04-05T09:51:50.772Z,2804.00
2019-04-05T09:52:50.759Z,2452.00
2019-04-05T09:53:50.781Z,2288.00
2019-04-05T09:54:50.738Z,2084.00
2019-04-05T09:55:50.722Z,2136.00
2019-04-05T09:56:50.723Z,2384.00
2019-04-05T09:57:50.707Z,2704.00
2019-04-05T09:58:50.830Z,3136.00
2019-04-05T09:59:50.801Z,3300.00
2019-04-05T10:00:50.672Z,3532.00
2019-04-05T10:01:50.658Z,4028.00
2019-04-05T10:02:50.660Z,4152.00
2019-04-05T10:03:50.645Z,4080.00
2019-04-05T10:04:50.706Z,4320.00
2019-04-05T10:05:50.650Z,4772.00
2019-04-05T10:06:50.599Z,5040.00
2019-04-05T10:07:55.389Z,5504.00
2019-04-05T10:08:51.578Z,5516.00
2019-04-05T10:09:50.633Z,5960.00
2019-04-05T10:10:50.575Z,6532.00
2019-04-05T10:11:50.546Z,6908.00
2019-04-05T10:12:50.609Z,6756.00
2019-04-05T10:13:50.518Z,7148.00
2019-04-05T10:14:50.510Z,8132.00
2019-04-05T10:15:50.514Z,7828.00
2019-04-05T10:16:50.489Z,7968.00
2019-04-05T10:17:50.484Z,7252.00
2019-04-05T10:18:51.609Z,7480.00
2019-04-05T10:19:51.381Z,7300.00
2019-04-05T10:20:50.445Z,5980.00
2019-04-05T10:21:50.448Z,5996.00
2019-04-05T10:22:50.559Z,6196.00
2019-04-05T10:23:50.414Z,6600.00
2019-04-05T10:24:50.407Z,6480.00
2019-04-05T10:25:50.387Z,6152.00
2019-04-05T10:26:50.383Z,5584.00
2019-04-05T10:27:50.389Z,6156.00
2019-04-05T10:28:50.375Z,6988.00
2019-04-05T10:29:50.348Z,6860.00
2019-04-05T10:30:51.934Z,6120.00
2019-04-05T10:31:50.321Z,5600.00
2019-04-05T10:32:50.311Z,5060.00
2019-04-05T10:33:50.299Z,4924.00
2019-04-05T10:34:50.326Z,4948.00
2019-04-05T10:35:50.890Z,5768.00
2019-04-05T10:36:50.267Z,6928.00
2019-04-05T10:37:50.257Z,7468.00
2019-04-05T10:38:50.248Z,7280.00
2019-04-05T10:39:50.274Z,7200.00
2019-04-05T10:40:50.219Z,6388.00
2019-04-05T10:42:02.402Z,5368.00
2019-04-05T10:42:51.197Z,5004.00
2019-04-05T10:43:50.191Z,5420.00
2019-04-05T10:44:50.176Z,6176.00
2019-04-05T10:45:50.202Z,6180.00
2019-04-05T10:46:50.158Z,6300.00
2019-04-05T10:47:50.150Z,5656.00
2019-04-05T10:48:50.129Z,5680.00
2019-04-05T10:50:02.350Z,5524.00
2019-04-05T10:50:51.136Z,5924.00
2019-04-05T10:51:50.296Z,5964.00
2019-04-05T10:52:50.108Z,5520.00
2019-04-05T10:53:50.082Z,5160.00
2019-04-05T10:54:50.094Z,5584.00
2019-04-05T10:55:50.061Z,6268.00
2019-04-05T10:56:50.042Z,7756.00
2019-04-05T10:57:50.065Z,8620.00
2019-04-05T10:58:50.050Z,8532.00
2019-04-05T10:59:50.011Z,7992.00
2019-04-05T11:00:50.003Z,8060.00
2019-04-05T11:01:49.992Z,7908.00
2019-04-05T11:02:50.000Z,7580.00
2019-04-05T11:03:49.975Z,8216.00
2019-04-05T11:04:49.974Z,7972.00
2019-04-05T11:05:49.934Z,7864.00
2019-04-05T11:06:49.928Z,7232.00
2019-04-05T11:07:49.921Z,6852.00
2019-04-05T11:08:49.915Z,6800.00
2019-04-05T11:09:50.881Z,7096.00
2019-04-05T11:10:49.880Z,7112.00
2019-04-05T11:11:49.878Z,6716.00
2019-04-05T11:12:50.421Z,5908.00
2019-04-05T11:13:49.863Z,4932.00
2019-04-05T11:14:49.893Z,5120.00
2019-04-05T11:15:49.841Z,6888.00
2019-04-05T11:16:58.313Z,8556.00
2019-04-05T11:17:50.838Z,8976.00
2019-04-05T11:18:49.841Z,7680.00
2019-04-05T11:19:49.791Z,6508.00
2019-04-05T11:20:49.905Z,5788.00
2019-04-05T11:21:52.266Z,5596.00
2019-04-05T11:22:50.983Z,5456.00
2019-04-05T11:23:49.789Z,5640.00
2019-04-05T11:24:49.745Z,6080.00
2019-04-05T11:25:49.722Z,6644.00
2019-04-05T11:26:49.709Z,6736.00
2019-04-05T11:27:49.695Z,5864.00
2019-04-05T11:28:49.713Z,5292.00
2019-04-05T11:29:49.669Z,5180.00
2019-04-05T11:30:49.693Z,5212.00
2019-04-05T11:31:57.031Z,5156.00
2019-04-05T11:32:50.637Z,5776.00
2019-04-05T11:33:49.624Z,5752.00
2019-04-05T11:34:49.785Z,4816.00
2019-04-05T11:35:49.637Z,4136.00
2019-04-05T11:36:49.600Z,4088.00
2019-04-05T11:37:50.717Z,4068.00
2019-04-05T11:38:50.882Z,3896.00
2019-04-05T11:39:49.672Z,3868.00
2019-04-05T11:40:49.548Z,3556.00
2019-04-05T11:41:49.556Z,3148.00
2019-04-05T11:42:49.546Z,2836.00
2019-04-05T11:43:49.513Z,2704.00
2019-04-05T11:44:49.536Z,2828.00
2019-04-05T11:45:50.811Z,3112.00
2019-04-05T11:46:49.863Z,2984.00
2019-04-05T11:47:49.463Z,2752.00
2019-04-05T11:48:49.466Z,2752.00
2019-04-05T11:49:49.443Z,2872.00
2019-04-05T11:50:49.457Z,2996.00
2019-04-05T11:51:49.446Z,3128.00
2019-04-05T11:52:49.428Z,3428.00
2019-04-05T11:53:49.405Z,3716.00
2019-04-05T11:54:49.399Z,3784.00
2019-04-05T11:55:49.412Z,3912.00
2019-04-05T11:56:49.397Z,3936.00
2019-04-05T11:57:49.354Z,4092.00
2019-04-05T11:58:49.425Z,4292.00
2019-04-05T11:59:49.329Z,5388.00
2019-04-05T12:00:49.327Z,5804.00
2019-04-05T12:01:49.339Z,5100.00
2019-04-05T12:02:49.294Z,4680.00
2019-04-05T12:03:49.340Z,4696.00
2019-04-05T12:04:49.291Z,6436.00
2019-04-05T12:05:49.272Z,7072.00
2019-04-05T12:06:51.805Z,6776.00
2019-04-05T12:07:49.283Z,6796.00
2019-04-05T12:08:49.241Z,7644.00
2019-04-05T12:09:49.221Z,7760.00
2019-04-05T12:10:49.208Z,7276.00
2019-04-05T12:11:49.337Z,6728.00
2019-04-05T12:12:49.196Z,5808.00
2019-04-05T12:13:49.204Z,5644.00
2019-04-05T12:14:49.245Z,6132.00
2019-04-05T12:15:49.152Z,6284.00
2019-04-05T12:16:49.157Z,5548.00
2019-04-05T12:17:49.128Z,5068.00
2019-04-05T12:18:49.146Z,4760.00
2019-04-05T12:19:49.114Z,4476.00
2019-04-05T12:20:58.952Z,4232.00
2019-04-05T12:21:50.091Z,4180.00
2019-04-05T12:22:52.227Z,4252.00
2019-04-05T12:23:49.090Z,4144.00
2019-04-05T12:24:49.065Z,4008.00
2019-04-05T12:25:49.046Z,4016.00
2019-04-05T12:26:49.036Z,4360.00
2019-04-05T12:27:49.027Z,5020.00
2019-04-05T12:28:49.016Z,5644.00
2019-04-05T12:29:49.029Z,5512.00
2019-04-05T12:30:49.102Z,4672.00
2019-04-05T12:31:48.977Z,4640.00
2019-04-05T12:32:49.435Z,5668.00
2019-04-05T12:33:51.442Z,7200.00
2019-04-05T12:34:49.485Z,7060.00
2019-04-05T12:35:51.727Z,6252.00
2019-04-05T12:36:50.540Z,5876.00